Time,TemperatureF,DewpointF,PressureIn,WindDirection,WindDirectionDegrees,WindSpeedMPH,WindSpeedGustMPH,Humidity,HourlyPrecipIn,Conditions,Clouds,dailyrainin,SoftwareType,DateUTC
2013-12-28 00:02:00,34.3,17.6,30.04,North,0,0.0,0.0,50,0.00,CLR,,0.00,WeatherDisplay:10.37,2013-12-28 07:02:00,
2013-12-28 00:07:00,34.2,17.4,30.03,West,270,0.0,0.0,50,0.00,CLR,,0.00,WeatherDisplay:10.37,2013-12-28 07:07:00,
2013-12-28 00:12:00,33.8,17.1,30.03,NW,315,0.0,0.0,50,0.00,CLR,,0.00,WeatherDisplay:10.37,2013-12-28 07:12:00,
2013-12-28 00:17:00,33.6,17.8,30.03,NW,315,0.0,0.0,52,0.00,CLR,,0.00,WeatherDisplay:10.37,2013-12-28 07:17:00,
2013-12-28 00:22:00,33.8,17.6,30.03,NW,315,0.0,0.0,51,0.00,CLR,,0.00,WeatherDisplay:10.37,2013-12-28 07:22:00,
2013-12-28 00:27:00,33.8,17.1,30.03,NW,315,0.0,0.0,50,0.00,CLR,,0.00,WeatherDisplay:10.37,2013-12-28 07:27:00,
2013-12-28 00:32:00,33.6,17.4,30.03,West,270,0.0,0.0,51,0.00,CLR,,0.00,WeatherDisplay:10.37,2013-12-28 07:32:00,
2013-12-28 00:37:00,33.3,17.5,30.03,NW,315,1.2,0.0,52,0.00,CLR,,0.00,WeatherDisplay:10.37,2013-12-28 07:37:00,
2013-12-28 00:42:00,33.1,17.3,30.02,NW,315,0.0,0.0,52,0.00,CLR,,0.00,WeatherDisplay:10.37,2013-12-28 07:42:00,
2013-12-28 00:47:00,32.7,17.0,30.02,NW,315,1.2,0.0,52,0.00,CLR,,0.00,WeatherDisplay:10.37,2013-12-28 07:47:00,
2013-12-28 00:52:00,32.7,17.5,30.01,NW,315,1.2,0.0,53,0.00,CLR,,0.00,WeatherDisplay:10.37,2013-12-28 07:52:00,
2013-12-28 00:57:00,32.7,17.5,30.01,NW,315,0.0,0.0,53,0.00,CLR,,0.00,WeatherDisplay:10.37,2013-12-28 07:57:00,
2013-12-28 01:02:00,32.7,17.0,30.01,NW,315,0.0,0.0,52,0.00,CLR,,0.00,WeatherDisplay:10.37,2013-12-28 08:02:00,
2013-12-28 01:07:00,32.7,17.0,30.01,NW,315,0.0,0.0,52,0.00,CLR,,0.00,WeatherDisplay:10.37,2013-12-28 08:07:00,
2013-12-28 01:12:00,33.1,17.8,30.00,NW,315,1.2,0.0,53,0.00,CLR,,0.00,WeatherDisplay:10.37,2013-12-28 08:12:00,
2013-12-28 01:17:00,33.1,17.3,30.00,West,270,0.0,0.0,52,0.00,CLR,,0.00,WeatherDisplay:10.37,2013-12-28 08:17:00,
2013-12-28 01:22:00,32.7,17.0,30.00,North,0,1.2,0.0,52,0.00,CLR,,0.00,WeatherDisplay:10.37,2013-12-28 08:22:00,
2013-12-28 01:27:00,32.5,17.3,30.00,North,0,0.0,0.0,53,0.00,CLR,,0.00,WeatherDisplay:10.37,2013-12-28 08:27:00,
2013-12-28 01:32:00,32.4,17.1,30.00,North,0,0.0,0.0,53,0.00,CLR,,0.00,WeatherDisplay:10.37,2013-12-28 08:32:00,
2013-12-28 01:37:00,32.2,16.9,30.00,NW,315,0.0,0.0,53,0.00,CLR,,0.00,WeatherDisplay:10.37,2013-12-28 08:37:00,
2013-12-28 01:42:00,32.2,17.4,30.00,NW,315,0.0,0.0,54,0.00,CLR,,0.00,WeatherDisplay:10.37,2013-12-28 08:42:00,
2013-12-28 01:47:00,32.2,16.9,29.99,NW,315,0.7,0.0,53,0.00,CLR,,0.00,WeatherDisplay:10.37,2013-12-28 08:47:00,
2013-12-28 01:52:00,32.0,17.2,29.99,NW,315,0.0,0.0,54,0.00,CLR,,0.00,WeatherDisplay:10.37,2013-12-28 08:52:00,
2013-12-28 01:57:00,32.0,17.2,29.99,NE,45,1.2,0.0,54,0.00,CLR,,0.00,WeatherDisplay:10.37,2013-12-28 08:57:00,
2013-12-28 02:02:00,32.0,17.2,29.99,West,270,1.2,1.2,54,0.00,CLR,,0.00,WeatherDisplay:10.37,2013-12-28 09:02:00,
2013-12-28 02:07:00,32.0,17.6,29.99,NW,315,3.5,0.0,55,0.00,CLR,,0.00,WeatherDisplay:10.37,2013-12-28 09:07:00,
2013-12-28 02:12:00,32.0,17.6,29.99,NW,315,1.2,0.0,55,0.00,CLR,,0.00,WeatherDisplay:10.37,2013-12-28 09:12:00,
2013-12-28 02:17:00,31.8,17.9,29.99,NW,315,1.2,1.2,56,0.00,CLR,,0.00,WeatherDisplay:10.37,2013-12-28 09:17:00,
2013-12-28 02:22:00,32.0,17.6,29.98,West,270,0.0,0.0,55,0.00,CLR,,0.00,WeatherDisplay:10.37,2013-12-28 09:22:00,
2013-12-28 02:27:00,32.0,17.6,29.98,NW,315,1.2,1.2,55,0.00,CLR,,0.00,WeatherDisplay:10.37,2013-12-28 09:27:00,
2013-12-28 02:32:00,32.2,17.8,29.99,NW,315,0.0,0.0,55,0.00,CLR,,0.00,WeatherDisplay:10.37,2013-12-28 09:32:00,
2013-12-28 02:37:00,32.0,17.6,29.98,NW,315,2.3,0.0,55,0.00,CLR,,0.00,WeatherDisplay:10.37,2013-12-28 09:37:00,
2013-12-28 02:42:00,32.0,17.6,29.98,NW,315,2.3,2.3,55,0.00,CLR,,0.00,WeatherDisplay:10.37,2013-12-28 09:42:00,
2013-12-28 02:47:00,32.0,17.6,29.98,West,270,1.2,1.2,55,0.00,CLR,,0.00,WeatherDisplay:10.37,2013-12-28 09:47:00,
2013-12-28 02:52:00,31.8,17.9,29.98,North,0,1.2,0.0,56,0.00,CLR,,0.00,WeatherDisplay:10.37,2013-12-28 09:52:00,
2013-12-28 02:57:00,31.6,18.1,29.98,NW,315,2.3,2.3,57,0.00,CLR,,0.00,WeatherDisplay:10.37,2013-12-28 09:57:00,
2013-12-28 03:02:00,31.8,18.3,29.98,NW,315,1.2,0.0,57,0.00,CLR,,0.00,WeatherDisplay:10.37,2013-12-28 10:02:00,
2013-12-28 03:07:00,31.8,18.3,29.97,NW,315,1.2,0.0,57,0.00,CLR,,0.00,WeatherDisplay:10.37,2013-12-28 10:07:00,
2013-12-28 03:12:00,32.0,17.6,29.97,NW,315,1.2,1.2,55,0.00,CLR,,0.00,WeatherDisplay:10.37,2013-12-28 10:12:00,
2013-12-28 03:17:00,32.0,17.6,29.97,North,0,0.0,0.0,55,0.00,CLR,,0.00,WeatherDisplay:10.37,2013-12-28 10:17:00,
2013-12-28 03:22:00,32.0,17.6,29.97,NW,315,2.3,2.3,55,0.00,CLR,,0.00,WeatherDisplay:10.37,2013-12-28 10:22:00,
2013-12-28 03:27:00,31.8,17.9,29.97,NW,315,1.2,0.0,56,0.00,CLR,,0.00,WeatherDisplay:10.37,2013-12-28 10:27:00,
2013-12-28 03:32:00,31.8,17.9,29.97,NW,315,3.5,3.5,56,0.00,CLR,,0.00,WeatherDisplay:10.37,2013-12-28 10:32:00,
2013-12-28 03:37:00,31.8,18.3,29.96,WNW,292,1.2,0.0,57,0.00,CLR,,0.00,WeatherDisplay:10.37,2013-12-28 10:37:00,
2013-12-28 03:42:00,32.2,18.2,29.96,NW,315,1.2,1.2,56,0.00,CLR,,0.00,WeatherDisplay:10.37,2013-12-28 10:42:00,
2013-12-28 03:47:00,32.4,18.0,29.96,NW,315,1.2,0.0,55,0.00,CLR,,0.00,WeatherDisplay:10.37,2013-12-28 10:47:00,
2013-12-28 03:52:00,32.4,18.0,29.96,NW,315,2.3,2.3,55,0.00,CLR,,0.00,WeatherDisplay:10.37,2013-12-28 10:52:00,
2013-12-28 03:58:00,32.2,17.4,29.96,NE,45,0.0,0.0,54,0.00,CLR,,0.00,WeatherDisplay:10.37,2013-12-28 10:58:00,
2013-12-28 04:02:00,31.8,17.9,29.96,NW,315,3.5,3.5,56,0.00,CLR,,0.00,WeatherDisplay:10.37,2013-12-28 11:02:00,
2013-12-28 04:07:00,31.8,18.3,29.96,NW,315,1.2,1.2,57,0.00,CLR,,0.00,WeatherDisplay:10.37,2013-12-28 11:07:00,
2013-12-28 04:12:00,32.2,17.8,29.95,NW,315,1.2,0.0,55,0.00,CLR,,0.00,WeatherDisplay:10.37,2013-12-28 11:12:00,
2013-12-28 04:17:00,32.4,18.0,29.95,NW,315,0.0,0.0,55,0.00,CLR,,0.00,WeatherDisplay:10.37,2013-12-28 11:17:00,
2013-12-28 04:22:00,32.7,17.9,29.95,NW,315,1.2,0.0,54,0.00,CLR,,0.00,WeatherDisplay:10.37,2013-12-28 11:22:00,
2013-12-28 04:27:00,32.7,17.9,29.95,WNW,292,1.2,0.0,54,0.00,CLR,,0.00,WeatherDisplay:10.37,2013-12-28 11:27:00,
2013-12-28 04:32:00,33.1,18.2,29.95,NW,315,0.0,0.0,54,0.00,CLR,,0.00,WeatherDisplay:10.37,2013-12-28 11:32:00,
2013-12-28 04:37:00,33.3,18.0,29.95,NW,315,1.2,0.0,53,0.00,CLR,,0.00,WeatherDisplay:10.37,2013-12-28 11:37:00,
2013-12-28 04:42:00,33.6,18.3,29.94,NW,315,1.2,0.0,53,0.00,CLR,,0.00,WeatherDisplay:10.37,2013-12-28 11:42:00,
2013-12-28 04:47:00,33.6,17.8,29.94,NW,315,2.3,0.0,52,0.00,CLR,,0.00,WeatherDisplay:10.37,2013-12-28 11:47:00,
2013-12-28 04:52:00,33.4,17.7,29.94,NW,315,0.0,0.0,52,0.00,CLR,,0.00,WeatherDisplay:10.37,2013-12-28 11:52:00,
2013-12-28 04:57:00,33.3,17.5,29.93,WNW,292,0.0,0.0,52,0.00,CLR,,0.00,WeatherDisplay:10.37,2013-12-28 11:57:00,
2013-12-28 05:02:00,33.3,17.5,29.94,NW,315,2.3,2.3,52,0.00,CLR,,0.00,WeatherDisplay:10.37,2013-12-28 12:02:00,
2013-12-28 05:07:00,33.3,17.5,29.94,NW,315,2.3,2.3,52,0.00,CLR,,0.00,WeatherDisplay:10.37,2013-12-28 12:07:00,
2013-12-28 05:12:00,34.2,17.9,29.94,NW,315,2.3,2.3,51,0.00,CLR,,0.00,WeatherDisplay:10.37,2013-12-28 12:12:00,
2013-12-28 05:17:00,34.5,17.8,29.93,NW,315,1.2,0.0,50,0.00,CLR,,0.00,WeatherDisplay:10.37,2013-12-28 12:17:00,
2013-12-28 05:22:00,34.5,17.8,29.94,North,0,1.2,0.0,50,0.00,CLR,,0.00,WeatherDisplay:10.37,2013-12-28 12:22:00,
2013-12-28 05:27:00,34.5,17.8,29.94,NW,315,1.2,0.0,50,0.00,CLR,,0.00,WeatherDisplay:10.37,2013-12-28 12:27:00,
2013-12-28 05:32:00,34.0,17.3,29.94,NW,315,1.2,1.6,50,0.00,CLR,,0.00,WeatherDisplay:10.37,2013-12-28 12:32:00,
2013-12-28 05:37:00,33.8,17.6,29.93,NW,315,0.0,0.0,51,0.00,CLR,,0.00,WeatherDisplay:10.37,2013-12-28 12:37:00,
2013-12-28 05:42:00,33.8,17.1,29.93,North,0,1.2,0.0,50,0.00,CLR,,0.00,WeatherDisplay:10.37,2013-12-28 12:42:00,
2013-12-28 05:47:00,34.0,17.7,29.93,North,0,0.0,0.0,51,0.00,CLR,,0.00,WeatherDisplay:10.37,2013-12-28 12:47:00,
2013-12-28 05:52:00,34.2,17.4,29.93,SW,225,1.2,0.0,50,0.00,CLR,,0.00,WeatherDisplay:10.37,2013-12-28 12:52:00,
2013-12-28 05:57:00,33.8,17.1,29.93,NW,315,2.3,2.3,50,0.00,CLR,,0.00,WeatherDisplay:10.37,2013-12-28 12:57:00,
2013-12-28 06:02:00,33.4,17.7,29.94,NW,315,1.2,1.2,52,0.00,CLR,,0.00,WeatherDisplay:10.37,2013-12-28 13:02:00,
2013-12-28 06:07:00,33.4,17.7,29.93,NW,315,1.2,0.0,52,0.00,CLR,,0.00,WeatherDisplay:10.37,2013-12-28 13:07:00,
2013-12-28 06:12:00,33.6,17.8,29.93,North,0,1.2,0.0,52,0.00,CLR,,0.00,WeatherDisplay:10.37,2013-12-28 13:12:00,
2013-12-28 06:17:00,33.8,17.6,29.93,NW,315,1.2,1.2,51,0.00,CLR,,0.00,WeatherDisplay:10.37,2013-12-28 13:17:00,
2013-12-28 06:22:00,35.1,18.7,29.93,NW,315,1.2,1.2,51,0.00,CLR,,0.00,WeatherDisplay:10.37,2013-12-28 13:22:00,
2013-12-28 06:27:00,36.0,18.6,29.93,NW,315,3.5,3.5,49,0.00,CLR,,0.00,WeatherDisplay:10.37,2013-12-28 13:27:00,
2013-12-28 06:32:00,40.3,21.1,29.93,WNW,292,3.5,3.5,46,0.00,CLR,,0.00,WeatherDisplay:10.37,2013-12-28 13:32:00,
2013-12-28 06:37:00,41.7,20.3,29.93,NW,315,3.5,3.5,42,0.00,CLR,,0.00,WeatherDisplay:10.37,2013-12-28 13:37:00,
2013-12-28 06:42:00,41.9,19.9,29.93,NW,315,0.0,0.0,41,0.00,CLR,,0.00,WeatherDisplay:10.37,2013-12-28 13:42:00,
2013-12-28 06:47:00,41.5,20.1,29.93,North,0,0.0,0.0,42,0.00,CLR,,0.00,WeatherDisplay:10.37,2013-12-28 13:47:00,
2013-12-28 06:52:00,40.1,19.4,29.93,NE,45,2.3,0.0,43,0.00,CLR,,0.00,WeatherDisplay:10.37,2013-12-28 13:52:00,
2013-12-28 06:57:00,39.0,18.9,29.93,West,270,0.0,0.0,44,0.00,CLR,,0.00,WeatherDisplay:10.37,2013-12-28 13:57:00,
2013-12-28 07:02:00,38.3,18.8,29.93,SW,225,1.2,0.0,45,0.00,CLR,,0.00,WeatherDisplay:10.37,2013-12-28 14:02:00,
2013-12-28 07:07:00,38.3,18.8,29.93,SW,225,1.2,0.0,45,0.00,CLR,,0.00,WeatherDisplay:10.37,2013-12-28 14:07:00,
2013-12-28 07:12:00,37.4,19.5,29.93,North,0,2.3,2.3,48,0.00,CLR,,0.00,WeatherDisplay:10.37,2013-12-28 14:12:00,
2013-12-28 07:17:00,38.5,20.0,29.93,NW,315,2.3,2.3,47,0.00,CLR,,0.00,WeatherDisplay:10.37,2013-12-28 14:17:00,
2013-12-28 07:22:00,39.9,19.7,29.93,North,0,3.5,3.5,44,0.00,CLR,,0.00,WeatherDisplay:10.37,2013-12-28 14:22:00,
2013-12-28 07:27:00,41.2,19.2,29.93,NW,315,3.5,3.5,41,0.00,CLR,,0.00,WeatherDisplay:10.37,2013-12-28 14:27:00,
2013-12-28 07:32:00,42.1,19.5,29.93,NW,315,3.5,3.5,40,0.00,CLR,,0.00,WeatherDisplay:10.37,2013-12-28 14:32:00,
2013-12-28 07:37:00,42.6,20.0,29.93,NW,315,3.5,3.5,40,0.00,CLR,,0.00,WeatherDisplay:10.37,2013-12-28 14:37:00,
2013-12-28 07:42:00,43.2,19.2,29.93,North,0,2.3,2.3,38,0.00,CLR,,0.00,WeatherDisplay:10.37,2013-12-28 14:42:00,
2013-12-28 07:47:00,43.5,18.3,29.93,NNW,338,3.5,3.5,36,0.00,CLR,,0.00,WeatherDisplay:10.37,2013-12-28 14:47:00,
2013-12-28 07:52:00,44.2,18.3,29.93,NW,315,3.5,3.5,35,0.00,CLR,,0.00,WeatherDisplay:10.37,2013-12-28 14:52:00,
2013-12-28 07:57:00,45.0,17.5,29.93,North,0,3.5,3.5,33,0.00,CLR,,0.00,WeatherDisplay:10.37,2013-12-28 14:57:00,
2013-12-28 08:02:00,45.5,17.3,29.93,North,0,3.5,3.5,32,0.00,CLR,,0.00,WeatherDisplay:10.37,2013-12-28 15:02:00,
2013-12-28 08:07:00,46.2,17.2,29.93,West,270,1.2,1.2,31,0.00,CLR,,0.00,WeatherDisplay:10.37,2013-12-28 15:07:00,
2013-12-28 08:12:00,47.1,18.7,29.93,North,0,3.5,3.5,32,0.00,CLR,,0.00,WeatherDisplay:10.37,2013-12-28 15:12:00,
2013-12-28 08:17:00,47.8,19.4,29.92,North,0,1.2,0.0,32,0.00,CLR,,0.00,WeatherDisplay:10.37,2013-12-28 15:17:00,
2013-12-28 08:23:00,48.4,18.3,29.92,North,0,1.2,0.0,30,0.00,CLR,,0.00,WeatherDisplay:10.37,2013-12-28 15:23:00,
2013-12-28 08:28:00,49.5,20.0,29.93,South,180,0.0,0.0,31,0.00,CLR,,0.00,WeatherDisplay:10.37,2013-12-28 15:28:00,
2013-12-28 08:33:00,50.4,19.3,29.92,North,0,0.0,0.0,29,0.00,CLR,,0.00,WeatherDisplay:10.37,2013-12-28 15:33:00,
2013-12-28 08:38:00,50.9,18.1,29.92,NW,315,1.2,0.0,27,0.00,CLR,,0.00,WeatherDisplay:10.37,2013-12-28 15:38:00,
2013-12-28 08:43:00,51.3,16.6,29.92,West,270,2.3,0.0,25,0.00,CLR,,0.00,WeatherDisplay:10.37,2013-12-28 15:43:00,
2013-12-28 08:48:00,52.0,16.3,29.92,South,180,0.0,0.0,24,0.00,CLR,,0.00,WeatherDisplay:10.37,2013-12-28 15:48:00,
2013-12-28 08:53:00,52.0,15.3,29.92,SW,225,3.5,3.5,23,0.00,CLR,,0.00,WeatherDisplay:10.37,2013-12-28 15:53:00,
2013-12-28 08:58:00,51.6,15.9,29.92,North,0,2.3,0.0,24,0.00,CLR,,0.00,WeatherDisplay:10.37,2013-12-28 15:58:00,
2013-12-28 09:03:00,51.4,15.8,29.93,West,270,1.2,0.0,24,0.00,CLR,,0.00,WeatherDisplay:10.37,2013-12-28 16:03:00,
2013-12-28 09:08:00,51.4,15.8,29.93,West,270,1.2,0.0,24,0.00,CLR,,0.00,WeatherDisplay:10.37,2013-12-28 16:08:00,
2013-12-28 09:13:00,51.3,14.7,29.92,North,0,3.5,3.5,23,0.00,CLR,,0.00,WeatherDisplay:10.37,2013-12-28 16:13:00,
2013-12-28 09:18:00,51.4,13.8,29.93,North,0,6.9,6.9,22,0.00,CLR,,0.00,WeatherDisplay:10.37,2013-12-28 16:18:00,
2013-12-28 09:23:00,51.8,13.0,29.93,NW,315,3.5,3.5,21,0.00,CLR,,0.00,WeatherDisplay:10.37,2013-12-28 16:23:00,
2013-12-28 09:28:00,52.3,13.5,29.93,West,270,3.5,3.5,21,0.00,CLR,,0.00,WeatherDisplay:10.37,2013-12-28 16:28:00,
2013-12-28 09:33:00,52.7,12.7,29.93,SW,225,3.5,3.5,20,0.00,CLR,,0.00,WeatherDisplay:10.37,2013-12-28 16:33:00,
2013-12-28 09:38:00,53.2,13.1,29.93,West,270,5.8,5.8,20,0.00,CLR,,0.00,WeatherDisplay:10.37,2013-12-28 16:38:00,
2013-12-28 09:43:00,53.8,12.4,29.92,WSW,248,3.5,3.5,19,0.00,CLR,,0.00,WeatherDisplay:10.37,2013-12-28 16:43:00,
2013-12-28 09:48:00,54.1,12.7,29.92,NNE,22,3.5,3.5,19,0.00,CLR,,0.00,WeatherDisplay:10.37,2013-12-28 16:48:00,
2013-12-28 09:53:00,54.9,13.3,29.93,North,0,2.3,2.3,19,0.00,CLR,,0.00,WeatherDisplay:10.37,2013-12-28 16:53:00,
2013-12-28 09:58:00,55.6,17.3,29.93,NW,315,4.5,4.5,22,0.00,CLR,,0.00,WeatherDisplay:10.37,2013-12-28 16:58:00,
2013-12-28 10:03:00,56.1,17.7,29.93,NE,45,3.5,3.5,22,0.00,CLR,,0.00,WeatherDisplay:10.37,2013-12-28 17:03:00,
2013-12-28 10:08:00,56.5,18.0,29.92,ENE,68,5.8,5.8,22,0.00,CLR,,0.00,WeatherDisplay:10.37,2013-12-28 17:08:00,
2013-12-28 10:13:00,55.8,19.5,29.93,East,90,2.3,2.3,24,0.00,CLR,,0.00,WeatherDisplay:10.37,2013-12-28 17:13:00,
2013-12-28 10:18:00,55.8,19.5,29.93,East,90,3.8,3.8,24,0.00,CLR,,0.00,WeatherDisplay:10.37,2013-12-28 17:18:00,
2013-12-28 10:23:00,55.2,19.0,29.93,East,90,5.8,5.8,24,0.00,CLR,,0.00,WeatherDisplay:10.37,2013-12-28 17:23:00,
2013-12-28 10:28:00,54.3,18.2,29.92,East,90,3.5,3.5,24,0.00,CLR,,0.00,WeatherDisplay:10.37,2013-12-28 17:28:00,
2013-12-28 10:33:00,54.5,18.4,29.92,ENE,68,2.3,2.3,24,0.00,CLR,,0.00,WeatherDisplay:10.37,2013-12-28 17:33:00,
2013-12-28 10:38:00,54.9,17.7,29.92,East,90,3.5,3.5,23,0.00,CLR,,0.00,WeatherDisplay:10.37,2013-12-28 17:38:00,
2013-12-28 10:43:00,55.2,17.0,29.92,East,90,3.5,3.5,22,0.00,CLR,,0.00,WeatherDisplay:10.37,2013-12-28 17:43:00,
2013-12-28 10:48:00,55.6,18.3,29.92,East,90,3.5,0.0,23,0.00,CLR,,0.00,WeatherDisplay:10.37,2013-12-28 17:48:00,
2013-12-28 10:53:00,56.1,17.7,29.92,NE,45,3.5,3.5,22,0.00,CLR,,0.00,WeatherDisplay:10.37,2013-12-28 17:53:00,
2013-12-28 10:58:00,56.5,18.0,29.92,NE,45,5.8,5.8,22,0.00,CLR,,0.00,WeatherDisplay:10.37,2013-12-28 17:58:00,
2013-12-28 11:03:00,56.3,18.9,29.91,NE,45,3.5,3.5,23,0.00,CLR,,0.00,WeatherDisplay:10.37,2013-12-28 18:03:00,
2013-12-28 11:08:00,55.4,21.9,29.91,NNE,22,3.5,3.5,27,0.00,CLR,,0.00,WeatherDisplay:10.37,2013-12-28 18:08:00,
2013-12-28 11:13:00,55.6,21.2,29.91,South,180,2.3,2.3,26,0.00,CLR,,0.00,WeatherDisplay:10.37,2013-12-28 18:13:00,
2013-12-28 11:18:00,55.9,20.6,29.91,East,90,2.3,2.3,25,0.00,CLR,,0.00,WeatherDisplay:10.37,2013-12-28 18:18:00,
2013-12-28 11:23:00,56.7,19.2,29.91,West,270,1.2,0.0,23,0.00,CLR,,0.00,WeatherDisplay:10.37,2013-12-28 18:23:00,
2013-12-28 11:28:00,57.4,17.7,29.91,NE,45,1.2,1.2,21,0.00,CLR,,0.00,WeatherDisplay:10.37,2013-12-28 18:28:00,
2013-12-28 11:33:00,57.9,17.0,29.90,North,0,1.2,0.0,20,0.00,CLR,,0.00,WeatherDisplay:10.37,2013-12-28 18:33:00,
2013-12-28 11:38:00,59.0,16.7,29.90,West,270,1.2,1.2,19,0.00,CLR,,0.00,WeatherDisplay:10.37,2013-12-28 18:38:00,
2013-12-28 11:43:00,59.4,15.8,29.90,SE,135,3.5,0.0,18,0.00,CLR,,0.00,WeatherDisplay:10.37,2013-12-28 18:43:00,
2013-12-28 11:48:00,59.7,14.8,29.90,West,270,2.3,2.3,17,0.00,CLR,,0.00,WeatherDisplay:10.37,2013-12-28 18:48:00,
2013-12-28 11:53:00,59.4,14.5,29.90,SW,225,2.3,2.3,17,0.00,CLR,,0.00,WeatherDisplay:10.37,2013-12-28 18:53:00,
2013-12-28 11:58:00,58.6,16.4,29.90,South,180,2.3,2.3,19,0.00,CLR,,0.00,WeatherDisplay:10.37,2013-12-28 18:58:00,
2013-12-28 12:03:00,58.3,17.3,29.90,NE,45,3.5,3.5,20,0.00,CLR,,0.00,WeatherDisplay:10.37,2013-12-28 19:03:00,
2013-12-28 12:08:00,57.2,16.4,29.90,NE,45,3.5,3.5,20,0.00,CLR,,0.00,WeatherDisplay:10.37,2013-12-28 19:08:00,
2013-12-28 12:13:00,56.8,18.3,29.90,East,90,6.9,6.9,22,0.00,CLR,,0.00,WeatherDisplay:10.37,2013-12-28 19:13:00,
2013-12-28 12:18:00,55.8,18.5,29.89,NE,45,5.8,5.8,23,0.00,CLR,,0.00,WeatherDisplay:10.37,2013-12-28 19:18:00,
2013-12-28 12:23:00,55.0,15.8,29.90,East,90,5.8,5.8,21,0.00,CLR,,0.00,WeatherDisplay:10.37,2013-12-28 19:23:00,
2013-12-28 12:28:00,54.7,15.5,29.90,NW,315,5.8,5.8,21,0.00,CLR,,0.00,WeatherDisplay:10.37,2013-12-28 19:28:00,
2013-12-28 12:33:00,53.8,17.8,29.90,NW,315,4.6,4.6,24,0.00,CLR,,0.00,WeatherDisplay:10.37,2013-12-28 19:33:00,
2013-12-28 12:38:00,53.4,18.4,29.90,NE,45,1.2,3.1,25,0.00,CLR,,0.00,WeatherDisplay:10.37,2013-12-28 19:38:00,
2013-12-28 12:43:00,52.9,18.9,29.91,West,270,3.5,3.5,26,0.00,CLR,,0.00,WeatherDisplay:10.37,2013-12-28 19:43:00,
2013-12-28 12:48:00,52.3,19.3,29.90,NNW,338,3.5,3.5,27,0.00,CLR,,0.00,WeatherDisplay:10.37,2013-12-28 19:48:00,
2013-12-28 12:53:00,52.2,20.0,29.90,NE,45,4.6,4.6,28,0.00,CLR,,0.00,WeatherDisplay:10.37,2013-12-28 19:53:00,
2013-12-28 12:58:00,52.0,19.0,29.89,NE,45,2.3,2.3,27,0.00,CLR,,0.00,WeatherDisplay:10.37,2013-12-28 19:58:00,
2013-12-28 13:03:00,52.0,18.1,29.90,North,0,1.2,0.0,26,0.00,CLR,,0.00,WeatherDisplay:10.37,2013-12-28 20:03:00,
2013-12-28 13:08:00,52.0,16.3,29.90,NW,315,2.3,2.3,24,0.00,CLR,,0.00,WeatherDisplay:10.37,2013-12-28 20:08:00,
2013-12-28 13:13:00,51.8,17.0,29.90,North,0,1.2,1.2,25,0.00,CLR,,0.00,WeatherDisplay:10.37,2013-12-28 20:13:00,
2013-12-28 13:18:00,51.8,17.0,29.90,NW,315,1.2,1.6,25,0.00,CLR,,0.00,WeatherDisplay:10.37,2013-12-28 20:18:00,
2013-12-28 13:23:00,51.6,17.8,29.90,East,90,3.5,3.5,26,0.00,CLR,,0.00,WeatherDisplay:10.37,2013-12-28 20:23:00,
2013-12-28 13:28:00,51.6,17.8,29.91,East,90,6.9,6.9,26,0.00,CLR,,0.00,WeatherDisplay:10.37,2013-12-28 20:28:00,
2013-12-28 13:33:00,51.3,19.2,29.91,NE,45,10.4,10.4,28,0.00,CLR,,0.00,WeatherDisplay:10.37,2013-12-28 20:33:00,
2013-12-28 13:38:00,50.4,19.3,29.90,East,90,3.5,3.8,29,0.00,CLR,,0.00,WeatherDisplay:10.37,2013-12-28 20:38:00,
2013-12-28 13:44:00,50.2,19.1,29.91,North,0,2.3,2.3,29,0.00,CLR,,0.00,WeatherDisplay:10.37,2013-12-28 20:44:00,
2013-12-28 13:49:00,50.0,18.1,29.91,North,0,3.5,3.5,28,0.00,CLR,,0.00,WeatherDisplay:10.37,2013-12-28 20:49:00,
2013-12-28 13:54:00,49.8,20.4,29.91,East,90,5.8,5.8,31,0.00,CLR,,0.00,WeatherDisplay:10.37,2013-12-28 20:54:00,
2013-12-28 13:59:00,49.6,18.6,29.92,NE,45,4.6,4.6,29,0.00,CLR,,0.00,WeatherDisplay:10.37,2013-12-28 20:59:00,
2013-12-28 14:04:00,49.5,18.5,29.92,SE,135,4.6,4.6,29,0.00,CLR,,0.00,WeatherDisplay:10.37,2013-12-28 21:04:00,
2013-12-28 14:09:00,49.1,15.6,29.92,NE,45,8.1,8.1,26,0.00,CLR,,0.00,WeatherDisplay:10.37,2013-12-28 21:09:00,
2013-12-28 14:14:00,48.7,15.3,29.92,East,90,11.5,11.5,26,0.00,CLR,,0.00,WeatherDisplay:10.37,2013-12-28 21:14:00,
2013-12-28 14:19:00,48.4,15.9,29.93,East,90,6.9,6.9,27,0.00,CLR,,0.00,WeatherDisplay:10.37,2013-12-28 21:19:00,
2013-12-28 14:24:00,47.7,17.7,29.93,ENE,68,11.5,11.5,30,0.00,CLR,,0.00,WeatherDisplay:10.37,2013-12-28 21:24:00,
2013-12-28 14:29:00,46.9,17.1,29.94,NE,45,12.7,12.7,30,0.00,CLR,,0.00,WeatherDisplay:10.37,2013-12-28 21:29:00,
2013-12-28 14:34:00,46.0,13.0,29.94,NE,45,15.0,15.0,26,0.00,CLR,,0.00,WeatherDisplay:10.37,2013-12-28 21:34:00,
2013-12-28 14:39:00,45.5,11.7,29.95,SE,135,15.0,15.0,25,0.00,CLR,,0.00,WeatherDisplay:10.37,2013-12-28 21:39:00,
2013-12-28 14:44:00,45.0,11.2,29.95,East,90,8.1,8.1,25,0.00,CLR,,0.00,WeatherDisplay:10.37,2013-12-28 21:44:00,
2013-12-28 14:49:00,44.6,10.9,29.96,NE,45,8.1,8.1,25,0.00,CLR,,0.00,WeatherDisplay:10.37,2013-12-28 21:49:00,
2013-12-28 14:54:00,44.2,12.3,29.96,NNE,22,8.1,8.1,27,0.00,CLR,,0.00,WeatherDisplay:10.37,2013-12-28 21:54:00,
2013-12-28 14:59:00,44.1,13.0,29.97,NW,315,4.6,4.6,28,0.00,CLR,,0.00,WeatherDisplay:10.37,2013-12-28 21:59:00,
2013-12-28 15:04:00,43.9,12.8,29.98,North,0,3.5,3.5,28,0.00,CLR,,0.00,WeatherDisplay:10.37,2013-12-28 22:04:00,
2013-12-28 15:09:00,43.7,13.5,29.98,WNW,292,3.5,3.5,29,0.00,CLR,,0.00,WeatherDisplay:10.37,2013-12-28 22:09:00,
2013-12-28 15:14:00,43.3,14.7,29.98,North,0,6.9,6.9,31,0.00,CLR,,0.00,WeatherDisplay:10.37,2013-12-28 22:14:00,
2013-12-28 15:19:00,43.0,15.8,29.99,NE,45,9.2,9.2,33,0.00,CLR,,0.00,WeatherDisplay:10.37,2013-12-28 22:19:00,
2013-12-28 15:24:00,42.8,17.0,29.99,NE,45,8.1,8.1,35,0.00,CLR,,0.00,WeatherDisplay:10.37,2013-12-28 22:24:00,
2013-12-28 15:29:00,42.6,18.1,29.99,NE,45,4.6,4.6,37,0.00,CLR,,0.00,WeatherDisplay:10.37,2013-12-28 22:29:00,
2013-12-28 15:34:00,42.3,19.6,30.00,NE,45,8.1,8.1,40,0.00,CLR,,0.00,WeatherDisplay:10.37,2013-12-28 22:34:00,
2013-12-28 15:39:00,42.1,19.5,30.00,SE,135,10.4,10.4,40,0.00,CLR,,0.00,WeatherDisplay:10.37,2013-12-28 22:39:00,
2013-12-28 15:44:00,41.9,19.3,30.00,NW,315,5.8,5.8,40,0.00,CLR,,0.00,WeatherDisplay:10.37,2013-12-28 22:44:00,
2013-12-28 15:49:00,41.7,19.7,30.00,NE,45,8.1,8.1,41,0.00,CLR,,0.00,WeatherDisplay:10.37,2013-12-28 22:49:00,
2013-12-28 15:54:00,41.4,19.4,30.00,North,0,6.9,6.9,41,0.00,CLR,,0.00,WeatherDisplay:10.37,2013-12-28 22:54:00,
2013-12-28 15:59:00,41.0,19.6,30.01,East,90,12.7,12.7,42,0.00,CLR,,0.00,WeatherDisplay:10.37,2013-12-28 22:59:00,
2013-12-28 16:04:00,40.6,20.9,30.02,NE,45,10.4,10.4,45,0.00,CLR,,0.00,WeatherDisplay:10.37,2013-12-28 23:04:00,
2013-12-28 16:09:00,40.3,20.6,30.02,NE,45,6.9,6.9,45,0.00,CLR,,0.00,WeatherDisplay:10.37,2013-12-28 23:09:00,
2013-12-28 16:14:00,39.9,21.3,30.03,West,270,5.8,5.8,47,0.00,CLR,,0.00,WeatherDisplay:10.37,2013-12-28 23:14:00,
2013-12-28 16:19:00,39.6,21.5,30.03,NE,45,10.4,10.4,48,0.00,CLR,,0.00,WeatherDisplay:10.37,2013-12-28 23:19:00,
2013-12-28 16:24:00,39.0,22.4,30.03,East,90,9.2,9.2,51,0.00,CLR,,0.00,WeatherDisplay:10.37,2013-12-28 23:24:00,
2013-12-28 16:29:00,38.7,22.5,30.03,ENE,68,13.8,13.8,52,0.00,CLR,,0.00,WeatherDisplay:10.37,2013-12-28 23:29:00,
2013-12-28 16:34:00,37.8,22.1,30.03,East,90,9.2,9.2,53,0.00,CLR,,0.00,WeatherDisplay:10.37,2013-12-28 23:34:00,
2013-12-28 16:39:00,37.2,20.3,30.04,NE,45,11.5,11.5,50,0.00,CLR,,0.00,WeatherDisplay:10.37,2013-12-28 23:39:00,
2013-12-28 16:44:00,36.9,20.4,30.04,NE,45,13.8,13.8,51,0.00,CLR,,0.00,WeatherDisplay:10.37,2013-12-28 23:44:00,
2013-12-28 16:49:00,36.5,20.5,30.04,NE,45,8.1,8.1,52,0.00,CLR,,0.00,WeatherDisplay:10.37,2013-12-28 23:49:00,
2013-12-28 16:54:00,36.1,20.2,30.05,East,90,5.8,5.8,52,0.00,CLR,,0.00,WeatherDisplay:10.37,2013-12-28 23:54:00,
2013-12-28 16:59:00,36.0,20.5,30.05,ESE,112,6.9,6.9,53,0.00,CLR,,0.00,WeatherDisplay:10.37,2013-12-28 23:59:00,
2013-12-28 17:04:00,36.0,20.5,30.05,East,90,6.0,6.0,53,0.00,CLR,,0.00,WeatherDisplay:10.37,2013-12-29 00:04:00,
2013-12-28 17:09:00,35.8,20.7,30.06,East,90,8.1,8.1,54,0.00,CLR,,0.00,WeatherDisplay:10.37,2013-12-29 00:09:00,
2013-12-28 17:14:00,35.6,20.6,30.05,NE,45,6.9,6.9,54,0.00,CLR,,0.00,WeatherDisplay:10.37,2013-12-29 00:14:00,
2013-12-28 17:19:00,35.4,21.3,30.06,East,90,5.8,5.8,56,0.00,CLR,,0.00,WeatherDisplay:10.37,2013-12-29 00:19:00,
2013-12-28 17:24:00,35.2,21.5,30.06,SE,135,5.8,5.8,57,0.00,CLR,,0.00,WeatherDisplay:10.37,2013-12-29 00:24:00,
2013-12-28 17:29:00,35.1,21.3,30.06,NE,45,3.5,3.5,57,0.00,CLR,,0.00,WeatherDisplay:10.37,2013-12-29 00:29:00,
2013-12-28 17:34:00,34.7,21.8,30.06,NE,45,5.8,5.8,59,0.00,CLR,,0.00,WeatherDisplay:10.37,2013-12-29 00:34:00,
2013-12-28 17:39:00,34.5,21.7,30.07,SE,135,11.5,11.5,59,0.00,CLR,,0.00,WeatherDisplay:10.37,2013-12-29 00:39:00,
2013-12-28 17:44:00,34.2,21.7,30.07,East,90,8.1,8.1,60,0.00,CLR,,0.00,WeatherDisplay:10.37,2013-12-29 00:44:00,
2013-12-28 17:49:00,34.0,21.9,30.07,NE,45,9.2,9.2,61,0.00,CLR,,0.00,WeatherDisplay:10.37,2013-12-29 00:49:00,
2013-12-28 17:54:00,33.8,22.1,30.07,NE,45,6.9,6.9,62,0.00,CLR,,0.00,WeatherDisplay:10.37,2013-12-29 00:54:00,
2013-12-28 17:59:00,33.6,22.4,30.07,NE,45,6.9,6.9,63,0.00,CLR,,0.00,WeatherDisplay:10.37,2013-12-29 00:59:00,
2013-12-28 18:04:00,33.4,22.2,30.07,NE,45,8.1,8.1,63,0.00,CLR,,0.00,WeatherDisplay:10.37,2013-12-29 01:04:00,
2013-12-28 18:09:00,33.4,22.6,30.07,NE,45,4.6,4.6,64,0.00,CLR,,0.00,WeatherDisplay:10.37,2013-12-29 01:09:00,
2013-12-28 18:14:00,33.3,22.4,30.08,NE,45,6.9,6.9,64,0.00,CLR,,0.00,WeatherDisplay:10.37,2013-12-29 01:14:00,
2013-12-28 18:19:00,33.3,22.4,30.08,NE,45,4.6,4.6,64,0.00,CLR,,0.00,WeatherDisplay:10.37,2013-12-29 01:19:00,
2013-12-28 18:24:00,33.3,22.8,30.08,SE,135,5.8,5.8,65,0.00,CLR,,0.00,WeatherDisplay:10.37,2013-12-29 01:24:00,
2013-12-28 18:29:00,33.3,22.8,30.08,East,90,8.1,8.1,65,0.00,CLR,,0.00,WeatherDisplay:10.37,2013-12-29 01:29:00,
2013-12-28 18:34:00,33.1,22.9,30.08,NW,315,6.9,6.9,66,0.00,CLR,,0.00,WeatherDisplay:10.37,2013-12-29 01:34:00,
2013-12-28 18:39:00,32.9,22.8,30.08,NE,45,8.1,8.1,66,0.00,CLR,,0.00,WeatherDisplay:10.37,2013-12-29 01:39:00,
2013-12-28 18:44:00,32.9,22.8,30.08,NW,315,8.1,8.1,66,0.00,CLR,,0.00,WeatherDisplay:10.37,2013-12-29 01:44:00,
2013-12-28 18:49:00,32.7,23.0,30.09,NW,315,9.2,9.2,67,0.00,CLR,,0.00,WeatherDisplay:10.37,2013-12-29 01:49:00,
2013-12-28 18:54:00,32.7,23.0,30.08,NE,45,5.8,5.8,67,0.00,CLR,,0.00,WeatherDisplay:10.37,2013-12-29 01:54:00,
2013-12-28 18:59:00,32.5,23.1,30.09,NE,45,5.8,6.9,68,0.00,CLR,,0.00,WeatherDisplay:10.37,2013-12-29 01:59:00,
2013-12-28 19:04:00,32.5,23.1,30.10,NE,45,5.8,5.8,68,0.00,CLR,,0.00,WeatherDisplay:10.37,2013-12-29 02:04:00,
2013-12-28 19:09:00,32.2,22.8,30.09,North,0,9.2,9.2,68,0.00,CLR,,0.00,WeatherDisplay:10.37,2013-12-29 02:09:00,
2013-12-28 19:14:00,32.0,23.0,30.09,NE,45,10.4,10.4,69,0.00,CLR,,0.00,WeatherDisplay:10.37,2013-12-29 02:14:00,
2013-12-28 19:19:00,31.8,23.5,30.10,North,0,10.4,10.4,71,0.00,CLR,,0.00,WeatherDisplay:10.37,2013-12-29 02:19:00,
2013-12-28 19:24:00,31.1,22.8,30.11,NE,45,9.2,9.2,71,0.00,CLR,,0.00,WeatherDisplay:10.37,2013-12-29 02:24:00,
2013-12-28 19:29:00,29.8,21.6,30.11,NW,315,12.7,12.7,71,0.00,CLR,,0.00,WeatherDisplay:10.37,2013-12-29 02:29:00,
2013-12-28 19:34:00,28.6,21.0,30.11,NW,315,10.4,10.4,73,0.00,CLR,,0.00,WeatherDisplay:10.37,2013-12-29 02:34:00,
2013-12-28 19:39:00,27.7,20.2,30.11,NW,315,5.8,5.8,73,0.00,CLR,,0.00,WeatherDisplay:10.37,2013-12-29 02:39:00,
2013-12-28 19:44:00,27.1,20.3,30.11,NE,45,8.1,8.1,75,0.00,CLR,,0.00,WeatherDisplay:10.37,2013-12-29 02:44:00,
2013-12-28 19:50:00,26.8,20.5,30.12,North,0,5.8,5.8,77,0.00,CLR,,0.00,WeatherDisplay:10.37,2013-12-29 02:50:00,
2013-12-28 19:55:00,26.4,20.8,30.12,WNW,292,10.4,10.4,79,0.00,CLR,,0.00,WeatherDisplay:10.37,2013-12-29 02:55:00,
2013-12-28 20:00:00,26.2,20.6,30.13,NW,315,8.1,8.1,79,0.00,CLR,,0.00,WeatherDisplay:10.37,2013-12-29 03:00:00,
2013-12-28 20:05:00,26.1,20.4,30.13,West,270,3.5,3.8,79,0.00,CLR,,0.00,WeatherDisplay:10.37,2013-12-29 03:05:00,
2013-12-28 20:10:00,26.1,20.4,30.13,North,0,10.4,10.4,79,0.00,CLR,,0.00,WeatherDisplay:10.37,2013-12-29 03:10:00,
2013-12-28 20:15:00,25.9,20.3,30.14,NE,45,6.9,6.9,79,0.00,CLR,,0.00,WeatherDisplay:10.37,2013-12-29 03:15:00,
2013-12-28 20:20:00,25.7,20.1,30.14,NE,45,8.1,8.1,79,0.00,CLR,,0.00,WeatherDisplay:10.37,2013-12-29 03:20:00,
2013-12-28 20:25:00,25.7,20.1,30.14,NE,45,5.8,5.8,79,0.00,CLR,,0.00,WeatherDisplay:10.37,2013-12-29 03:25:00,
2013-12-28 20:30:00,25.7,20.1,30.14,East,90,4.6,4.6,79,0.00,CLR,,0.00,WeatherDisplay:10.37,2013-12-29 03:30:00,
2013-12-28 20:35:00,25.7,19.8,30.14,NE,45,3.5,0.0,78,0.00,CLR,,0.00,WeatherDisplay:10.37,2013-12-29 03:35:00,
2013-12-28 20:40:00,25.5,19.6,30.14,SW,225,4.6,4.6,78,0.00,CLR,,0.00,WeatherDisplay:10.37,2013-12-29 03:40:00,
2013-12-28 20:45:00,25.5,19.6,30.14,NE,45,4.6,4.6,78,0.00,CLR,,0.00,WeatherDisplay:10.37,2013-12-29 03:45:00,
2013-12-28 20:50:00,25.2,19.3,30.14,ENE,68,3.5,3.5,78,0.00,CLR,,0.00,WeatherDisplay:10.37,2013-12-29 03:50:00,
2013-12-28 20:55:00,25.0,19.1,30.15,East,90,4.5,4.5,78,0.00,CLR,,0.00,WeatherDisplay:10.37,2013-12-29 03:55:00,
2013-12-28 21:00:00,24.8,18.9,30.14,East,90,3.5,3.5,78,0.00,CLR,,0.00,WeatherDisplay:10.37,2013-12-29 04:00:00,
2013-12-28 21:05:00,24.8,18.9,30.15,East,90,3.5,3.5,78,0.00,CLR,,0.00,WeatherDisplay:10.37,2013-12-29 04:05:00,
2013-12-28 21:10:00,24.8,18.9,30.15,North,0,3.5,3.5,78,0.00,CLR,,0.00,WeatherDisplay:10.37,2013-12-29 04:10:00,
2013-12-28 21:15:00,24.8,17.7,30.15,NE,45,4.6,4.6,74,0.00,CLR,,0.00,WeatherDisplay:10.37,2013-12-29 04:15:00,
2013-12-28 21:20:00,25.0,16.9,30.15,NE,45,5.8,5.8,71,0.00,CLR,,0.00,WeatherDisplay:10.37,2013-12-29 04:20:00,
2013-12-28 21:25:00,25.0,16.2,30.15,ENE,68,6.9,6.9,69,0.00,CLR,,0.00,WeatherDisplay:10.37,2013-12-29 04:25:00,
2013-12-28 21:30:00,25.2,15.4,30.15,NE,45,3.5,3.5,66,0.00,CLR,,0.00,WeatherDisplay:10.37,2013-12-29 04:30:00,
2013-12-28 21:35:00,25.2,15.4,30.16,NE,45,2.3,2.3,66,0.00,CLR,,0.00,WeatherDisplay:10.37,2013-12-29 04:35:00,
2013-12-28 21:40:00,25.0,15.6,30.16,East,90,6.9,6.9,67,0.00,CLR,,0.00,WeatherDisplay:10.37,2013-12-29 04:40:00,
2013-12-28 21:45:00,24.6,15.9,30.16,ESE,112,9.2,9.2,69,0.00,CLR,,0.00,WeatherDisplay:10.37,2013-12-29 04:45:00,
2013-12-28 21:50:00,24.4,16.1,30.17,East,90,6.9,6.9,70,0.00,CLR,,0.00,WeatherDisplay:10.37,2013-12-29 04:50:00,
2013-12-28 21:55:00,24.1,16.0,30.17,NNE,22,4.6,4.6,71,0.00,CLR,,0.00,WeatherDisplay:10.37,2013-12-29 04:55:00,
2013-12-28 22:00:00,23.9,16.5,30.17,NE,45,2.3,2.3,73,0.00,CLR,,0.00,WeatherDisplay:10.37,2013-12-29 05:00:00,
2013-12-28 22:01:00,23.9,16.5,30.17,NE,45,2.3,2.3,73,0.00,CLR,,0.00,WeatherDisplay:10.37,2013-12-29 05:01:00,
2013-12-28 22:02:00,23.7,16.3,30.17,NE,45,3.5,3.5,73,0.00,CLR,,0.00,WeatherDisplay:10.37,2013-12-29 05:02:00,
2013-12-28 22:07:00,23.5,16.5,30.17,North,0,5.8,5.8,74,0.00,CLR,,0.00,WeatherDisplay:10.37,2013-12-29 05:07:00,
2013-12-28 22:12:00,23.0,15.6,30.18,NE,45,4.6,4.6,73,0.00,CLR,,0.00,WeatherDisplay:10.37,2013-12-29 05:12:00,
2013-12-28 22:17:00,22.3,14.9,30.18,East,90,5.8,5.8,73,0.00,CLR,,0.00,WeatherDisplay:10.37,2013-12-29 05:17:00,
2013-12-28 22:22:00,21.9,14.6,30.18,NE,45,5.4,5.4,73,0.00,CLR,,0.00,WeatherDisplay:10.37,2013-12-29 05:22:00,
2013-12-28 22:27:00,21.9,14.6,30.18,NNE,22,2.3,2.3,73,0.00,CLR,,0.00,WeatherDisplay:10.37,2013-12-29 05:27:00,
2013-12-28 22:32:00,21.6,14.6,30.19,NE,45,3.5,3.5,74,0.00,CLR,,0.00,WeatherDisplay:10.37,2013-12-29 05:32:00,
2013-12-28 22:37:00,21.6,14.6,30.19,NE,45,5.8,5.8,74,0.00,CLR,,0.00,WeatherDisplay:10.37,2013-12-29 05:37:00,
2013-12-28 22:42:00,21.4,14.7,30.19,NE,45,3.5,3.5,75,0.00,CLR,,0.00,WeatherDisplay:10.37,2013-12-29 05:42:00,
2013-12-28 22:47:00,21.2,14.8,30.19,SE,135,6.9,6.9,76,0.00,CLR,,0.00,WeatherDisplay:10.37,2013-12-29 05:47:00,
2013-12-28 22:52:00,21.0,15.2,30.18,SE,135,3.5,3.5,78,0.00,CLR,,0.00,WeatherDisplay:10.37,2013-12-29 05:52:00,
2013-12-28 22:57:00,21.0,15.5,30.19,South,180,4.6,4.6,79,0.00,CLR,,0.00,WeatherDisplay:10.37,2013-12-29 05:57:00,
2013-12-28 23:02:00,20.7,15.8,30.18,East,90,1.2,1.2,81,0.00,CLR,,0.00,WeatherDisplay:10.37,2013-12-29 06:02:00,
2013-12-28 23:07:00,20.7,15.8,30.19,East,90,1.2,1.2,81,0.00,CLR,,0.00,WeatherDisplay:10.37,2013-12-29 06:07:00,
2013-12-28 23:12:00,20.3,16.0,30.18,NE,45,3.5,3.5,83,0.00,CLR,,0.00,WeatherDisplay:10.37,2013-12-29 06:12:00,
2013-12-28 23:17:00,20.1,16.1,30.18,East,90,3.5,3.5,84,0.00,CLR,,0.00,WeatherDisplay:10.37,2013-12-29 06:17:00,
2013-12-28 23:22:00,19.9,16.2,30.18,South,180,3.5,3.5,85,0.00,CLR,,0.00,WeatherDisplay:10.37,2013-12-29 06:22:00,
2013-12-28 23:27:00,19.8,16.0,30.18,East,90,5.8,5.8,85,0.00,CLR,,0.00,WeatherDisplay:10.37,2013-12-29 06:27:00,
2013-12-28 23:32:00,19.8,16.3,30.19,East,90,3.5,3.5,86,0.00,CLR,,0.00,WeatherDisplay:10.37,2013-12-29 06:32:00,
2013-12-28 23:37:00,19.6,16.1,30.19,East,90,4.6,4.6,86,0.00,CLR,,0.00,WeatherDisplay:10.37,2013-12-29 06:37:00,
2013-12-28 23:42:00,19.4,15.9,30.19,East,90,3.5,3.5,86,0.00,CLR,,0.00,WeatherDisplay:10.37,2013-12-29 06:42:00,
2013-12-28 23:47:00,19.4,15.9,30.18,NE,45,3.5,3.5,86,0.00,CLR,,0.00,WeatherDisplay:10.37,2013-12-29 06:47:00,
2013-12-28 23:52:00,19.2,14.6,30.19,East,90,5.8,5.8,82,0.00,CLR,,0.00,WeatherDisplay:10.37,2013-12-29 06:52:00,
2013-12-28 23:57:00,19.0,14.4,30.19,NE,45,3.5,3.5,82,0.00,CLR,,0.00,WeatherDisplay:10.37,2013-12-29 06:57:00,